sensor_id;sensor_type;location;lat;lon;timestamp;pressure;altitude;pressure_sealevel;temperature;humidity
3917;BME280;1973;50.518;7.318;2023-03-11T00:00:12;99890.72;;;3.20;100.00
3917;BME280;1973;50.518;7.318;2023-03-11T00:02:39;99900.94;;;3.18;100.00
3917;BME280;1973;50.518;7.318;2023-03-11T00:05:07;99912.47;;;3.20;100.00
3917;BME280;1973;50.518;7.318;2023-03-11T00:07:34;99925.22;;;3.20;100.00
3917;BME280;1973;50.518;7.318;2023-03-11T00:10:03;99924.84;;;3.23;100.00
3917;BME280;1973;50.518;7.318;2023-03-11T00:12:29;99924.66;;;3.24;100.00
3917;BME280;1973;50.518;7.318;2023-03-11T00:14:55;99926.31;;;3.25;100.00
3917;BME280;1973;50.518;7.318;2023-03-11T00:17:22;99927.00;;;3.27;100.00
3917;BME280;1973;50.518;7.318;2023-03-11T00:19:48;99933.75;;;3.31;100.00
3917;BME280;1973;50.518;7.318;2023-03-11T00:22:15;99927.06;;;3.34;100.00
3917;BME280;1973;50.518;7.318;2023-03-11T00:24:41;99941.13;;;3.37;100.00
3917;BME280;1973;50.518;7.318;2023-03-11T00:27:07;99932.13;;;3.37;100.00
3917;BME280;1973;50.518;7.318;2023-03-11T00:29:34;99944.13;;;3.42;100.00
3917;BME280;1973;50.518;7.318;2023-03-11T00:32:00;99940.00;;;3.47;100.00
3917;BME280;1973;50.518;7.318;2023-03-11T00:34:27;99942.25;;;3.43;100.00
3917;BME280;1973;50.518;7.318;2023-03-11T00:36:53;99943.56;;;3.47;100.00
3917;BME280;1973;50.518;7.318;2023-03-11T00:39:20;99961.09;;;3.44;100.00
3917;BME280;1973;50.518;7.318;2023-03-11T00:41:46;99966.34;;;3.46;100.00
3917;BME280;1973;50.518;7.318;2023-03-11T00:44:13;99958.38;;;3.44;100.00
3917;BME280;1973;50.518;7.318;2023-03-11T00:46:39;99969.53;;;3.50;100.00
3917;BME280;1973;50.518;7.318;2023-03-11T00:49:06;99985.19;;;3.48;100.00
3917;BME280;1973;50.518;7.318;2023-03-11T00:51:32;99980.81;;;3.47;100.00
3917;BME280;1973;50.518;7.318;2023-03-11T00:53:59;99981.44;;;3.49;100.00
3917;BME280;1973;50.518;7.318;2023-03-11T00:56:26;99973.97;;;3.51;100.00
3917;BME280;1973;50.518;7.318;2023-03-11T00:58:52;99980.22;;;3.51;100.00
3917;BME280;1973;50.518;7.318;2023-03-11T01:01:19;99969.34;;;3.51;100.00
3917;BME280;1973;50.518;7.318;2023-03-11T01:03:46;99997.78;;;3.49;100.00
3917;BME280;1973;50.518;7.318;2023-03-11T01:06:13;99975.16;;;3.48;100.00
3917;BME280;1973;50.518;7.318;2023-03-11T01:08:40;99979.41;;;3.51;100.00
3917;BME280;1973;50.518;7.318;2023-03-11T01:11:07;99976.47;;;3.52;100.00
3917;BME280;1973;50.518;7.318;2023-03-11T01:13:34;99975.63;;;3.52;100.00
3917;BME280;1973;50.518;7.318;2023-03-11T01:16:01;99978.81;;;3.55;100.00
3917;BME280;1973;50.518;7.318;2023-03-11T01:18:28;99977.13;;;3.54;100.00
3917;BME280;1973;50.518;7.318;2023-03-11T01:20:54;99976.00;;;3.49;100.00
3917;BME280;1973;50.518;7.318;2023-03-11T01:23:21;99977.88;;;3.48;100.00
3917;BME280;1973;50.518;7.318;2023-03-11T01:25:47;99975.38;;;3.47;100.00
3917;BME280;1973;50.518;7.318;2023-03-11T01:28:14;99978.72;;;3.49;100.00
3917;BME280;1973;50.518;7.318;2023-03-11T01:30:41;99987.75;;;3.49;100.00
3917;BME280;1973;50.518;7.318;2023-03-11T01:33:14;100012.16;;;3.42;100.00
3917;BME280;1973;50.518;7.318;2023-03-11T01:35:41;100001.25;;;3.42;100.00
3917;BME280;1973;50.518;7.318;2023-03-11T01:38:10;99994.13;;;3.41;100.00
3917;BME280;1973;50.518;7.318;2023-03-11T01:40:40;100005.00;;;3.41;100.00
3917;BME280;1973;50.518;7.318;2023-03-11T01:48:34;100013.66;;;3.30;100.00
3917;BME280;1973;50.518;7.318;2023-03-11T01:51:04;100016.38;;;3.30;100.00
3917;BME280;1973;50.518;7.318;2023-03-11T01:53:31;100008.19;;;3.30;100.00
3917;BME280;1973;50.518;7.318;2023-03-11T01:56:01;100016.53;;;3.29;100.00
3917;BME280;1973;50.518;7.318;2023-03-11T01:58:32;100010.91;;;3.30;100.00
3917;BME280;1973;50.518;7.318;2023-03-11T02:01:01;100020.56;;;3.33;100.00
3917;BME280;1973;50.518;7.318;2023-03-11T02:03:31;100011.22;;;3.35;100.00
3917;BME280;1973;50.518;7.318;2023-03-11T02:06:00;100012.69;;;3.38;100.00
3917;BME280;1973;50.518;7.318;2023-03-11T02:08:28;100020.69;;;3.39;100.00
3917;BME280;1973;50.518;7.318;2023-03-11T02:10:55;100022.72;;;3.37;100.00
3917;BME280;1973;50.518;7.318;2023-03-11T02:13:22;100025.06;;;3.40;100.00
3917;BME280;1973;50.518;7.318;2023-03-11T02:15:49;100024.91;;;3.42;100.00
3917;BME280;1973;50.518;7.318;2023-03-11T02:18:16;100028.25;;;3.44;100.00
3917;BME280;1973;50.518;7.318;2023-03-11T02:26:36;100027.31;;;3.37;100.00
3917;BME280;1973;50.518;7.318;2023-03-11T02:29:06;100029.31;;;3.43;100.00
3917;BME280;1973;50.518;7.318;2023-03-11T02:31:37;100027.78;;;3.40;100.00
3917;BME280;1973;50.518;7.318;2023-03-11T02:34:15;100023.03;;;3.42;100.00
3917;BME280;1973;50.518;7.318;2023-03-11T02:36:43;100028.16;;;3.37;100.00
3917;BME280;1973;50.518;7.318;2023-03-11T02:39:10;100031.19;;;3.42;100.00
3917;BME280;1973;50.518;7.318;2023-03-11T02:41:39;100030.97;;;3.44;100.00
3917;BME280;1973;50.518;7.318;2023-03-11T02:44:09;100039.53;;;3.41;100.00
3917;BME280;1973;50.518;7.318;2023-03-11T02:46:37;100036.41;;;3.44;100.00
3917;BME280;1973;50.518;7.318;2023-03-11T02:49:05;100036.25;;;3.46;100.00
3917;BME280;1973;50.518;7.318;2023-03-11T02:51:32;100044.56;;;3.44;100.00
3917;BME280;1973;50.518;7.318;2023-03-11T02:54:02;100049.00;;;3.45;100.00
3917;BME280;1973;50.518;7.318;2023-03-11T02:56:29;100046.28;;;3.45;100.00
3917;BME280;1973;50.518;7.318;2023-03-11T02:58:56;100055.28;;;3.46;100.00
3917;BME280;1973;50.518;7.318;2023-03-11T03:01:22;100048.34;;;3.43;100.00
3917;BME280;1973;50.518;7.318;2023-03-11T03:03:49;100061.97;;;3.43;100.00
3917;BME280;1973;50.518;7.318;2023-03-11T03:06:15;100060.25;;;3.42;100.00
3917;BME280;1973;50.518;7.318;2023-03-11T03:08:42;100051.25;;;3.41;100.00
3917;BME280;1973;50.518;7.318;2023-03-11T03:11:08;100057.53;;;3.42;100.00
3917;BME280;1973;50.518;7.318;2023-03-11T03:13:35;100063.34;;;3.39;100.00
3917;BME280;1973;50.518;7.318;2023-03-11T03:16:01;100055.84;;;3.41;100.00
3917;BME280;1973;50.518;7.318;2023-03-11T03:18:28;100052.28;;;3.40;100.00
3917;BME280;1973;50.518;7.318;2023-03-11T03:20:55;100059.59;;;3.40;100.00
3917;BME280;1973;50.518;7.318;2023-03-11T03:23:22;100053.31;;;3.39;100.00
3917;BME280;1973;50.518;7.318;2023-03-11T03:25:48;100047.22;;;3.37;100.00
3917;BME280;1973;50.518;7.318;2023-03-11T03:28:15;100053.69;;;3.36;100.00
3917;BME280;1973;50.518;7.318;2023-03-11T03:30:41;100052.00;;;3.35;100.00
3917;BME280;1973;50.518;7.318;2023-03-11T03:33:08;100049.47;;;3.34;100.00
3917;BME280;1973;50.518;7.318;2023-03-11T03:35:35;100064.94;;;3.33;100.00
3917;BME280;1973;50.518;7.318;2023-03-11T03:38:05;100059.88;;;3.30;100.00
3917;BME280;1973;50.518;7.318;2023-03-11T03:40:31;100059.88;;;3.30;100.00
3917;BME280;1973;50.518;7.318;2023-03-11T03:42:58;100065.03;;;3.25;100.00
3917;BME280;1973;50.518;7.318;2023-03-11T03:45:25;100076.94;;;3.24;100.00
3917;BME280;1973;50.518;7.318;2023-03-11T03:47:51;100070.00;;;3.22;100.00
3917;BME280;1973;50.518;7.318;2023-03-11T03:50:18;100079.38;;;3.19;100.00
3917;BME280;1973;50.518;7.318;2023-03-11T03:52:45;100078.72;;;3.17;100.00
3917;BME280;1973;50.518;7.318;2023-03-11T03:55:11;100096.91;;;3.17;100.00
3917;BME280;1973;50.518;7.318;2023-03-11T03:57:38;100097.75;;;3.17;100.00
3917;BME280;1973;50.518;7.318;2023-03-11T04:00:05;100094.38;;;3.15;100.00
3917;BME280;1973;50.518;7.318;2023-03-11T04:02:34;100098.31;;;3.13;100.00
3917;BME280;1973;50.518;7.318;2023-03-11T04:05:01;100095.13;;;3.09;100.00
3917;BME280;1973;50.518;7.318;2023-03-11T04:07:27;100101.78;;;3.07;100.00
3917;BME280;1973;50.518;7.318;2023-03-11T04:09:54;100110.47;;;3.02;100.00
3917;BME280;1973;50.518;7.318;2023-03-11T04:12:20;100103.72;;;2.98;100.00
3917;BME280;1973;50.518;7.318;2023-03-11T04:14:46;100120.41;;;2.95;100.00
3917;BME280;1973;50.518;7.318;2023-03-11T04:17:13;100113.66;;;2.91;100.00
3917;BME280;1973;50.518;7.318;2023-03-11T04:19:43;100114.66;;;2.90;100.00
3917;BME280;1973;50.518;7.318;2023-03-11T04:22:09;100123.19;;;2.87;100.00
3917;BME280;1973;50.518;7.318;2023-03-11T04:24:36;100117.06;;;2.85;100.00
3917;BME280;1973;50.518;7.318;2023-03-11T04:27:02;100125.59;;;2.82;100.00
3917;BME280;1973;50.518;7.318;2023-03-11T04:29:28;100121.56;;;2.78;100.00
3917;BME280;1973;50.518;7.318;2023-03-11T04:31:55;100130.56;;;2.78;100.00
3917;BME280;1973;50.518;7.318;2023-03-11T04:34:22;100132.78;;;2.75;100.00
3917;BME280;1973;50.518;7.318;2023-03-11T04:36:52;100131.28;;;2.72;100.00
3917;BME280;1973;50.518;7.318;2023-03-11T04:39:19;100139.81;;;2.69;100.00
3917;BME280;1973;50.518;7.318;2023-03-11T04:41:46;100138.28;;;2.67;100.00
3917;BME280;1973;50.518;7.318;2023-03-11T04:44:12;100146.81;;;2.64;100.00
3917;BME280;1973;50.518;7.318;2023-03-11T04:46:39;100151.59;;;2.62;100.00
3917;BME280;1973;50.518;7.318;2023-03-11T04:49:05;100148.19;;;2.60;100.00
3917;BME280;1973;50.518;7.318;2023-03-11T04:51:32;100152.28;;;2.56;100.00
3917;BME280;1973;50.518;7.318;2023-03-11T04:53:58;100152.00;;;2.51;100.00
3917;BME280;1973;50.518;7.318;2023-03-11T04:56:24;100146.94;;;2.48;100.00
3917;BME280;1973;50.518;7.318;2023-03-11T04:58:51;100146.41;;;2.44;100.00
3917;BME280;1973;50.518;7.318;2023-03-11T05:01:17;100157.84;;;2.39;100.00
3917;BME280;1973;50.518;7.318;2023-03-11T05:03:44;100150.88;;;2.37;100.00
3917;BME280;1973;50.518;7.318;2023-03-11T05:06:11;100151.44;;;2.32;100.00
3917;BME280;1973;50.518;7.318;2023-03-11T05:08:38;100150.59;;;2.32;100.00
3917;BME280;1973;50.518;7.318;2023-03-11T05:11:04;100150.09;;;2.28;100.00
3917;BME280;1973;50.518;7.318;2023-03-11T05:13:31;100156.91;;;2.24;100.00
3917;BME280;1973;50.518;7.318;2023-03-11T05:15:57;100152.50;;;2.23;100.00
3917;BME280;1973;50.518;7.318;2023-03-11T05:18:23;100160.63;;;2.23;100.00
3917;BME280;1973;50.518;7.318;2023-03-11T05:20:50;100158.44;;;2.19;100.00
3917;BME280;1973;50.518;7.318;2023-03-11T05:23:16;100169.84;;;2.14;100.00
3917;BME280;1973;50.518;7.318;2023-03-11T05:25:43;100166.63;;;2.11;100.00
3917;BME280;1973;50.518;7.318;2023-03-11T05:28:10;100173.63;;;2.05;100.00
3917;BME280;1973;50.518;7.318;2023-03-11T05:30:36;100170.56;;;2.00;100.00
3917;BME280;1973;50.518;7.318;2023-03-11T05:33:03;100177.22;;;1.98;100.00
3917;BME280;1973;50.518;7.318;2023-03-11T05:35:29;100178.94;;;1.90;100.00
3917;BME280;1973;50.518;7.318;2023-03-11T05:37:56;100180.47;;;1.85;100.00
3917;BME280;1973;50.518;7.318;2023-03-11T05:40:22;100181.19;;;1.79;100.00
3917;BME280;1973;50.518;7.318;2023-03-11T05:42:49;100182.72;;;1.73;100.00
3917;BME280;1973;50.518;7.318;2023-03-11T05:45:15;100185.97;;;1.69;100.00
3917;BME280;1973;50.518;7.318;2023-03-11T05:47:41;100189.53;;;1.61;100.00
3917;BME280;1973;50.518;7.318;2023-03-11T05:50:09;100189.03;;;1.58;100.00
3917;BME280;1973;50.518;7.318;2023-03-11T05:52:37;100194.97;;;1.53;100.00
3917;BME280;1973;50.518;7.318;2023-03-11T05:55:03;100198.19;;;1.48;100.00
3917;BME280;1973;50.518;7.318;2023-03-11T05:57:30;100203.31;;;1.43;100.00
3917;BME280;1973;50.518;7.318;2023-03-11T05:59:56;100196.53;;;1.39;100.00
3917;BME280;1973;50.518;7.318;2023-03-11T06:02:23;100206.03;;;1.35;100.00
3917;BME280;1973;50.518;7.318;2023-03-11T06:04:49;100210.09;;;1.31;100.00
3917;BME280;1973;50.518;7.318;2023-03-11T06:07:16;100216.72;;;1.29;100.00
3917;BME280;1973;50.518;7.318;2023-03-11T06:09:43;100221.63;;;1.25;100.00
3917;BME280;1973;50.518;7.318;2023-03-11T06:12:09;100212.81;;;1.23;100.00
3917;BME280;1973;50.518;7.318;2023-03-11T06:14:35;100215.88;;;1.20;100.00
3917;BME280;1973;50.518;7.318;2023-03-11T06:17:03;100227.72;;;1.19;100.00
3917;BME280;1973;50.518;7.318;2023-03-11T06:19:30;100228.75;;;1.18;100.00
3917;BME280;1973;50.518;7.318;2023-03-11T06:21:56;100227.91;;;1.18;100.00
3917;BME280;1973;50.518;7.318;2023-03-11T06:24:23;100238.91;;;1.16;100.00
3917;BME280;1973;50.518;7.318;2023-03-11T06:26:51;100230.75;;;1.16;100.00
3917;BME280;1973;50.518;7.318;2023-03-11T06:29:18;100238.91;;;1.16;100.00
3917;BME280;1973;50.518;7.318;2023-03-11T06:31:44;100237.19;;;1.15;100.00
3917;BME280;1973;50.518;7.318;2023-03-11T06:34:11;100237.19;;;1.15;100.00
3917;BME280;1973;50.518;7.318;2023-03-11T06:36:38;100240.59;;;1.17;100.00
3917;BME280;1973;50.518;7.318;2023-03-11T06:39:04;100249.41;;;1.19;100.00
3917;BME280;1973;50.518;7.318;2023-03-11T06:41:34;100245.69;;;1.20;100.00
3917;BME280;1973;50.518;7.318;2023-03-11T06:44:00;100250.94;;;1.22;100.00
3917;BME280;1973;50.518;7.318;2023-03-11T06:46:27;100252.44;;;1.24;100.00
3917;BME280;1973;50.518;7.318;2023-03-11T06:48:53;100264.66;;;1.28;100.00
3917;BME280;1973;50.518;7.318;2023-03-11T06:51:20;100268.03;;;1.30;100.00
3917;BME280;1973;50.518;7.318;2023-03-11T06:53:48;100270.25;;;1.35;100.00
3917;BME280;1973;50.518;7.318;2023-03-11T06:56:15;100283.31;;;1.39;100.00
3917;BME280;1973;50.518;7.318;2023-03-11T06:58:42;100288.38;;;1.42;100.00
3917;BME280;1973;50.518;7.318;2023-03-11T07:01:11;100302.28;;;1.48;100.00
3917;BME280;1973;50.518;7.318;2023-03-11T07:03:38;100307.88;;;1.54;100.00
3917;BME280;1973;50.518;7.318;2023-03-11T07:06:06;100309.75;;;1.62;100.00
3917;BME280;1973;50.518;7.318;2023-03-11T07:08:36;100307.84;;;1.70;100.00
3917;BME280;1973;50.518;7.318;2023-03-11T07:11:06;100322.59;;;1.84;100.00
3917;BME280;1973;50.518;7.318;2023-03-11T07:13:32;100313.06;;;1.96;100.00
3917;BME280;1973;50.518;7.318;2023-03-11T07:16:07;100302.88;;;2.06;100.00
3917;BME280;1973;50.518;7.318;2023-03-11T07:18:34;100317.78;;;2.18;100.00
3917;BME280;1973;50.518;7.318;2023-03-11T07:21:03;100324.38;;;2.32;100.00
3917;BME280;1973;50.518;7.318;2023-03-11T07:23:30;100321.63;;;2.40;100.00
3917;BME280;1973;50.518;7.318;2023-03-11T07:25:56;100321.59;;;2.48;100.00
3917;BME280;1973;50.518;7.318;2023-03-11T07:28:25;100322.56;;;2.55;100.00
3917;BME280;1973;50.518;7.318;2023-03-11T07:30:52;100339.22;;;2.60;100.00
3917;BME280;1973;50.518;7.318;2023-03-11T07:33:19;100341.03;;;2.68;100.00
3917;BME280;1973;50.518;7.318;2023-03-11T07:35:46;100336.44;;;2.76;100.00
3917;BME280;1973;50.518;7.318;2023-03-11T07:38:15;100350.81;;;2.85;100.00
3917;BME280;1973;50.518;7.318;2023-03-11T07:40:43;100348.06;;;2.93;100.00
3917;BME280;1973;50.518;7.318;2023-03-11T07:43:10;100356.19;;;3.01;100.00
3917;BME280;1973;50.518;7.318;2023-03-11T07:45:36;100367.19;;;3.08;100.00
3917;BME280;1973;50.518;7.318;2023-03-11T07:48:03;100361.88;;;3.14;100.00
3917;BME280;1973;50.518;7.318;2023-03-11T07:50:30;100364.25;;;3.17;100.00
3917;BME280;1973;50.518;7.318;2023-03-11T07:52:56;100367.63;;;3.19;100.00
3917;BME280;1973;50.518;7.318;2023-03-11T07:55:22;100377.97;;;3.24;100.00
3917;BME280;1973;50.518;7.318;2023-03-11T07:57:49;100374.03;;;3.26;100.00
3917;BME280;1973;50.518;7.318;2023-03-11T08:00:17;100369.78;;;3.32;100.00
3917;BME280;1973;50.518;7.318;2023-03-11T08:02:43;100379.28;;;3.36;100.00
3917;BME280;1973;50.518;7.318;2023-03-11T08:05:10;100381.91;;;3.44;100.00
3917;BME280;1973;50.518;7.318;2023-03-11T08:07:36;100391.75;;;3.53;100.00
3917;BME280;1973;50.518;7.318;2023-03-11T08:10:03;100397.97;;;3.62;100.00
3917;BME280;1973;50.518;7.318;2023-03-11T08:12:29;100394.91;;;3.65;100.00
3917;BME280;1973;50.518;7.318;2023-03-11T08:14:56;100396.03;;;3.70;100.00
3917;BME280;1973;50.518;7.318;2023-03-11T08:17:22;100395.97;;;3.78;100.00
3917;BME280;1973;50.518;7.318;2023-03-11T08:19:49;100396.56;;;3.88;100.00
3917;BME280;1973;50.518;7.318;2023-03-11T08:22:15;100397.19;;;3.99;100.00
3917;BME280;1973;50.518;7.318;2023-03-11T08:24:42;100392.69;;;4.06;100.00
3917;BME280;1973;50.518;7.318;2023-03-11T08:27:08;100387.72;;;4.09;100.00
3917;BME280;1973;50.518;7.318;2023-03-11T08:29:35;100391.03;;;4.19;100.00
3917;BME280;1973;50.518;7.318;2023-03-11T08:32:02;100387.94;;;4.22;100.00
3917;BME280;1973;50.518;7.318;2023-03-11T08:34:29;100395.94;;;4.24;100.00
3917;BME280;1973;50.518;7.318;2023-03-11T08:36:55;100391.34;;;4.24;100.00
3917;BME280;1973;50.518;7.318;2023-03-11T08:39:22;100380.44;;;4.24;100.00
3917;BME280;1973;50.518;7.318;2023-03-11T08:41:49;100388.88;;;4.29;100.00
3917;BME280;1973;50.518;7.318;2023-03-11T08:44:15;100391.59;;;4.29;100.00
3917;BME280;1973;50.518;7.318;2023-03-11T08:46:42;100385.13;;;4.30;100.00
3917;BME280;1973;50.518;7.318;2023-03-11T08:49:08;100385.44;;;4.35;100.00
3917;BME280;1973;50.518;7.318;2023-03-11T08:51:35;100395.09;;;4.38;100.00
3917;BME280;1973;50.518;7.318;2023-03-11T08:54:03;100400.47;;;4.46;100.00
3917;BME280;1973;50.518;7.318;2023-03-11T08:56:29;100397.19;;;4.51;100.00
3917;BME280;1973;50.518;7.318;2023-03-11T08:58:56;100396.44;;;4.57;100.00
3917;BME280;1973;50.518;7.318;2023-03-11T09:01:22;100399.94;;;4.65;100.00
3917;BME280;1973;50.518;7.318;2023-03-11T09:03:49;100394.97;;;4.69;100.00
3917;BME280;1973;50.518;7.318;2023-03-11T09:06:16;100402.28;;;4.68;100.00
3917;BME280;1973;50.518;7.318;2023-03-11T09:08:43;100405.56;;;4.64;100.00
3917;BME280;1973;50.518;7.318;2023-03-11T09:11:10;100409.03;;;4.58;100.00
3917;BME280;1973;50.518;7.318;2023-03-11T09:13:39;100410.06;;;4.57;100.00
3917;BME280;1973;50.518;7.318;2023-03-11T09:16:08;100409.03;;;4.58;100.00
3917;BME280;1973;50.518;7.318;2023-03-11T09:18:37;100401.50;;;4.60;100.00
3917;BME280;1973;50.518;7.318;2023-03-11T09:21:04;100404.06;;;4.61;100.00
3917;BME280;1973;50.518;7.318;2023-03-11T09:23:30;100402.00;;;4.63;100.00
3917;BME280;1973;50.518;7.318;2023-03-11T09:25:57;100401.72;;;4.73;100.00
3917;BME280;1973;50.518;7.318;2023-03-11T09:28:23;100395.97;;;4.82;100.00
3917;BME280;1973;50.518;7.318;2023-03-11T09:30:50;100398.63;;;4.90;100.00
3917;BME280;1973;50.518;7.318;2023-03-11T09:33:16;100404.25;;;4.89;91.96
3917;BME280;1973;50.518;7.318;2023-03-11T09:35:43;100405.94;;;4.90;87.00
3917;BME280;1973;50.518;7.318;2023-03-11T09:38:10;100402.84;;;4.93;85.67
3917;BME280;1973;50.518;7.318;2023-03-11T09:40:50;100404.69;;;5.07;78.29
3917;BME280;1973;50.518;7.318;2023-03-11T09:51:42;100412.06;;;5.57;78.93
3917;BME280;1973;50.518;7.318;2023-03-11T09:54:12;100408.03;;;5.74;80.56
3917;BME280;1973;50.518;7.318;2023-03-11T09:56:41;100402.81;;;5.94;74.97
3917;BME280;1973;50.518;7.318;2023-03-11T09:59:32;100393.75;;;6.15;65.08
3917;BME280;1973;50.518;7.318;2023-03-11T10:02:01;100410.63;;;6.25;72.88
3917;BME280;1973;50.518;7.318;2023-03-11T10:04:35;100406.78;;;6.41;66.52
3917;BME280;1973;50.518;7.318;2023-03-11T10:07:11;100404.50;;;6.44;64.29
3917;BME280;1973;50.518;7.318;2023-03-11T10:09:43;100410.81;;;6.45;64.75
3917;BME280;1973;50.518;7.318;2023-03-11T10:26:27;100425.97;;;7.09;53.22
3917;BME280;1973;50.518;7.318;2023-03-11T10:29:23;100420.38;;;6.90;50.36
3917;BME280;1973;50.518;7.318;2023-03-11T10:32:00;100432.31;;;6.82;51.01
3917;BME280;1973;50.518;7.318;2023-03-11T10:34:37;100430.22;;;6.84;53.53
3917;BME280;1973;50.518;7.318;2023-03-11T10:37:10;100433.41;;;6.88;55.07
3917;BME280;1973;50.518;7.318;2023-03-11T10:39:39;100426.75;;;6.97;57.57
3917;BME280;1973;50.518;7.318;2023-03-11T10:42:19;100425.06;;;7.02;49.92
3917;BME280;1973;50.518;7.318;2023-03-11T10:44:47;100412.91;;;7.59;54.57
3917;BME280;1973;50.518;7.318;2023-03-11T10:47:21;100406.47;;;7.99;48.89
3917;BME280;1973;50.518;7.318;2023-03-11T10:49:51;100407.81;;;8.29;52.55
3917;BME280;1973;50.518;7.318;2023-03-11T10:52:20;100398.94;;;8.27;50.97
3917;BME280;1973;50.518;7.318;2023-03-11T10:54:48;100413.03;;;8.18;51.29
3917;BME280;1973;50.518;7.318;2023-03-11T10:57:29;100418.53;;;8.11;51.21
3917;BME280;1973;50.518;7.318;2023-03-11T11:00:00;100424.63;;;8.00;51.54
3917;BME280;1973;50.518;7.318;2023-03-11T11:02:38;100429.44;;;7.92;49.53
3917;BME280;1973;50.518;7.318;2023-03-11T11:05:26;100419.31;;;7.86;45.90
3917;BME280;1973;50.518;7.318;2023-03-11T11:08:07;100427.16;;;8.21;47.49
3917;BME280;1973;50.518;7.318;2023-03-11T11:10:36;100417.09;;;8.55;50.91
3917;BME280;1973;50.518;7.318;2023-03-11T11:13:16;100413.22;;;8.95;47.01
3917;BME280;1973;50.518;7.318;2023-03-11T11:15:58;100410.97;;;9.43;45.20
3917;BME280;1973;50.518;7.318;2023-03-11T11:21:06;100415.03;;;9.72;43.23
3917;BME280;1973;50.518;7.318;2023-03-11T11:23:37;100406.09;;;9.83;46.14
3917;BME280;1973;50.518;7.318;2023-03-11T11:26:15;100401.78;;;10.00;43.33
3917;BME280;1973;50.518;7.318;2023-03-11T11:28:42;100401.59;;;9.95;46.60
3917;BME280;1973;50.518;7.318;2023-03-11T11:31:22;100393.03;;;10.10;42.50
3917;BME280;1973;50.518;7.318;2023-03-11T11:33:54;100394.03;;;10.22;45.09
3917;BME280;1973;50.518;7.318;2023-03-11T11:36:24;100390.28;;;10.41;45.54
3917;BME280;1973;50.518;7.318;2023-03-11T11:38:53;100384.78;;;10.41;45.03
3917;BME280;1973;50.518;7.318;2023-03-11T11:41:22;100385.44;;;10.37;44.49
3917;BME280;1973;50.518;7.318;2023-03-11T11:43:55;100386.19;;;10.25;41.71
3917;BME280;1973;50.518;7.318;2023-03-11T11:46:27;100396.03;;;10.08;42.74
3917;BME280;1973;50.518;7.318;2023-03-11T11:49:15;100391.09;;;9.86;41.11
3917;BME280;1973;50.518;7.318;2023-03-11T11:51:51;100390.75;;;9.69;42.24
3917;BME280;1973;50.518;7.318;2023-03-11T11:54:42;100401.81;;;9.56;39.05
3917;BME280;1973;50.518;7.318;2023-03-11T11:57:15;100395.84;;;9.65;42.00
3917;BME280;1973;50.518;7.318;2023-03-11T11:59:43;100409.59;;;10.03;43.26
3917;BME280;1973;50.518;7.318;2023-03-11T12:05:24;100403.53;;;9.88;43.38
3917;BME280;1973;50.518;7.318;2023-03-11T12:08:16;100407.88;;;9.71;39.48
3917;BME280;1973;50.518;7.318;2023-03-11T12:11:10;100408.16;;;9.50;41.53
3917;BME280;1973;50.518;7.318;2023-03-11T12:14:02;100397.16;;;9.12;39.18
3917;BME280;1973;50.518;7.318;2023-03-11T12:22:24;100406.94;;;8.75;41.02
3917;BME280;1973;50.518;7.318;2023-03-11T12:25:17;100398.09;;;8.66;43.53
3917;BME280;1973;50.518;7.318;2023-03-11T12:30:33;100419.19;;;8.40;44.63
3917;BME280;1973;50.518;7.318;2023-03-11T12:33:04;100413.50;;;8.35;45.26
3917;BME280;1973;50.518;7.318;2023-03-11T12:35:34;100405.91;;;8.63;45.25
3917;BME280;1973;50.518;7.318;2023-03-11T12:38:06;100410.88;;;8.99;44.32
3917;BME280;1973;50.518;7.318;2023-03-11T12:46:00;100408.16;;;9.94;43.01
3917;BME280;1973;50.518;7.318;2023-03-11T12:50:57;100400.19;;;10.17;42.65
3917;BME280;1973;50.518;7.318;2023-03-11T12:53:47;100404.53;;;10.32;39.62
3917;BME280;1973;50.518;7.318;2023-03-11T12:56:42;100399.66;;;10.58;41.15
3917;BME280;1973;50.518;7.318;2023-03-11T13:02:28;100398.19;;;10.56;39.58
3917;BME280;1973;50.518;7.318;2023-03-11T13:05:06;100401.75;;;10.38;41.45
3917;BME280;1973;50.518;7.318;2023-03-11T13:10:52;100389.66;;;10.39;42.39
3917;BME280;1973;50.518;7.318;2023-03-11T13:13:38;100384.50;;;10.49;40.59
3917;BME280;1973;50.518;7.318;2023-03-11T13:18:39;100377.47;;;10.29;42.12
3917;BME280;1973;50.518;7.318;2023-03-11T13:35:43;100396.94;;;9.58;40.31
3917;BME280;1973;50.518;7.318;2023-03-11T13:38:55;100401.28;;;9.34;39.38
3917;BME280;1973;50.518;7.318;2023-03-11T13:41:30;100393.25;;;9.33;41.58
3917;BME280;1973;50.518;7.318;2023-03-11T13:44:13;100397.88;;;9.39;40.68
3917;BME280;1973;50.518;7.318;2023-03-11T13:46:44;100394.50;;;9.37;41.85
3917;BME280;1973;50.518;7.318;2023-03-11T13:49:23;100385.41;;;9.36;41.73
3917;BME280;1973;50.518;7.318;2023-03-11T13:51:53;100395.38;;;9.31;42.28
3917;BME280;1973;50.518;7.318;2023-03-11T13:57:00;100391.00;;;9.67;43.33
3917;BME280;1973;50.518;7.318;2023-03-11T13:59:30;100392.63;;;9.75;42.84
3917;BME280;1973;50.518;7.318;2023-03-11T14:04:34;100386.66;;;9.85;42.79
3917;BME280;1973;50.518;7.318;2023-03-11T14:07:25;100388.91;;;9.94;42.56
3917;BME280;1973;50.518;7.318;2023-03-11T14:12:37;100395.22;;;10.33;41.99
3917;BME280;1973;50.518;7.318;2023-03-11T14:15:06;100398.59;;;10.35;42.51
3917;BME280;1973;50.518;7.318;2023-03-11T14:17:33;100396.06;;;10.33;42.23
3917;BME280;1973;50.518;7.318;2023-03-11T14:22:32;100394.09;;;10.09;42.32
3917;BME280;1973;50.518;7.318;2023-03-11T14:25:00;100394.53;;;10.06;42.69
3917;BME280;1973;50.518;7.318;2023-03-11T14:27:30;100396.84;;;10.09;42.82
3917;BME280;1973;50.518;7.318;2023-03-11T14:29:57;100389.53;;;10.27;42.52
3917;BME280;1973;50.518;7.318;2023-03-11T14:32:25;100383.41;;;10.50;42.46
3917;BME280;1973;50.518;7.318;2023-03-11T14:34:53;100386.88;;;10.89;41.73
3917;BME280;1973;50.518;7.318;2023-03-11T14:37:26;100377.75;;;11.24;42.14
3917;BME280;1973;50.518;7.318;2023-03-11T14:39:55;100377.28;;;11.64;41.93
3917;BME280;1973;50.518;7.318;2023-03-11T14:42:36;100379.34;;;11.98;40.47
3917;BME280;1973;50.518;7.318;2023-03-11T14:45:14;100378.72;;;12.38;39.15
3917;BME280;1973;50.518;7.318;2023-03-11T14:50:23;100375.75;;;12.86;39.68
3917;BME280;1973;50.518;7.318;2023-03-11T14:55:39;100368.84;;;13.35;37.09
3917;BME280;1973;50.518;7.318;2023-03-11T15:00:49;100377.38;;;13.73;37.65
3917;BME280;1973;50.518;7.318;2023-03-11T15:03:27;100380.44;;;13.88;36.14